Time;durP1;ratioP1;P1;durP2;ratioP2;P2;SDS_P1;SDS_P2;PMS_P1;PMS_P2;Temp;Humidity;BMP_temperature;BMP_pressure;BME280_temperature;BME280_humidity;BME280_pressure;Samples;Min_cycle;Max_cycle;Signal;HPM_P1;HPM_P2
2022/04/11 00:00:31;;;;;;;1.33;1.33;;;4.30;99.90;;;;;;5008861;28;20188;-78
2022/04/11 00:02:56;;;;;;;0.60;0.60;;;4.20;99.90;;;;;;5010209;28;20224;-78
2022/04/11 00:05:22;;;;;;;1.73;1.73;;;4.10;99.90;;;;;;4985887;28;20184;-78
2022/04/11 00:07:49;;;;;;;1.33;1.33;;;4.20;99.90;;;;;;4997698;28;20195;-78
2022/04/11 00:10:14;;;;;;;0.50;0.50;;;4.20;99.90;;;;;;5001696;28;20439;-78
2022/04/11 00:12:40;;;;;;;0.30;0.30;;;4.10;99.90;;;;;;5009392;28;20494;-78
2022/04/11 00:15:06;;;;;;;1.10;1.10;;;4.20;99.90;;;;;;5006627;28;20218;-78
2022/04/11 00:17:32;;;;;;;0.80;0.80;;;4.20;99.90;;;;;;5023258;28;20180;-78
2022/04/11 00:19:58;;;;;;;0.73;0.73;;;4.10;99.90;;;;;;5014209;28;20533;-78
2022/04/11 00:22:23;;;;;;;0.60;0.60;;;4.10;99.90;;;;;;5010130;28;20915;-78
2022/04/11 00:24:50;;;;;;;0.63;0.63;;;4.00;99.90;;;;;;5000515;28;20195;-78
2022/04/11 00:27:15;;;;;;;0.40;0.40;;;4.00;99.90;;;;;;5016313;28;20196;-78
2022/04/11 00:29:41;;;;;;;0.40;0.40;;;4.00;99.90;;;;;;4999787;28;20546;-78
2022/04/11 00:32:07;;;;;;;0.40;0.40;;;4.10;99.90;;;;;;5009248;28;20213;-78
2022/04/11 00:34:33;;;;;;;0.50;0.50;;;4.00;99.90;;;;;;5010330;28;20192;-78
2022/04/11 00:36:58;;;;;;;0.40;0.40;;;3.90;99.90;;;;;;5011772;28;20443;-78
2022/04/11 00:39:23;;;;;;;0.40;0.40;;;4.00;99.90;;;;;;5019486;28;20284;-78
2022/04/11 00:41:49;;;;;;;0.40;0.40;;;4.00;99.90;;;;;;5010044;28;20220;-78
2022/04/11 00:44:14;;;;;;;1.50;1.50;;;4.10;99.90;;;;;;5001532;28;20649;-77
2022/04/11 00:46:40;;;;;;;0.50;0.50;;;4.00;99.90;;;;;;5011770;28;20274;-78
2022/04/11 00:49:05;;;;;;;0.60;0.60;;;3.90;99.90;;;;;;5002922;28;20672;-78
2022/04/11 00:51:31;;;;;;;0.60;0.60;;;3.90;99.90;;;;;;5015634;28;20226;-78
2022/04/11 00:53:59;;;;;;;0.80;0.80;;;3.90;99.90;;;;;;5002043;28;20218;-78
2022/04/11 00:56:28;;;;;;;0.53;0.53;;;3.90;99.90;;;;;;4996412;28;20236;-78
2022/04/11 00:58:55;;;;;;;0.40;0.40;;;3.80;99.90;;;;;;5015769;28;20494;-78
2022/04/11 01:01:21;;;;;;;0.67;0.67;;;3.90;99.90;;;;;;5007158;28;20458;-78
2022/04/11 01:03:47;;;;;;;0.40;0.40;;;3.90;99.90;;;;;;5010486;28;20502;-78
2022/04/11 01:06:12;;;;;;;0.50;0.50;;;3.90;99.90;;;;;;5007854;28;20259;-78
2022/04/11 01:08:38;;;;;;;0.40;0.40;;;3.90;99.90;;;;;;4999900;28;20188;-78
2022/04/11 01:11:04;;;;;;;0.57;0.57;;;3.80;99.90;;;;;;4987857;28;20790;-78
2022/04/11 01:13:29;;;;;;;0.40;0.40;;;3.80;99.90;;;;;;5002587;28;20191;-78
2022/04/11 01:16:00;;;;;;;0.30;0.30;;;3.70;99.90;;;;;;5009346;28;20184;-78
2022/04/11 01:18:26;;;;;;;0.40;0.40;;;3.80;99.90;;;;;;5009826;28;20183;-78
2022/04/11 01:20:53;;;;;;;0.40;0.40;;;3.80;99.90;;;;;;5007643;28;20443;-78
2022/04/11 01:23:19;;;;;;;0.37;0.37;;;3.80;99.90;;;;;;5010653;28;20188;-78
2022/04/11 01:25:54;;;;;;;0.43;0.43;;;3.70;99.90;;;;;;5013110;28;20430;-78
2022/04/11 01:28:21;;;;;;;0.40;0.40;;;3.80;99.90;;;;;;5020599;28;20525;-78
2022/04/11 01:30:49;;;;;;;0.40;0.40;;;3.80;99.90;;;;;;4992165;28;20435;-78
2022/04/11 01:33:25;;;;;;;0.43;0.43;;;3.90;99.90;;;;;;5009143;28;20455;-78
2022/04/11 01:35:51;;;;;;;0.40;0.40;;;3.90;99.90;;;;;;5001731;28;20462;-78
2022/04/11 01:38:17;;;;;;;0.30;0.30;;;3.80;99.90;;;;;;5014074;28;20927;-78
2022/04/11 01:40:49;;;;;;;0.40;0.40;;;3.80;99.90;;;;;;5013148;28;20176;-78
2022/04/11 01:43:14;;;;;;;0.43;0.43;;;3.70;99.90;;;;;;4995214;28;20606;-78
2022/04/11 01:45:40;;;;;;;0.40;0.40;;;3.70;99.90;;;;;;5015709;28;20481;-78
2022/04/11 01:48:05;;;;;;;0.30;0.30;;;3.70;99.90;;;;;;4993708;28;20180;-78
2022/04/11 01:50:31;;;;;;;0.30;0.30;;;3.70;99.90;;;;;;5000264;28;20190;-78
2022/04/11 01:53:05;;;;;;;0.40;0.40;;;3.70;99.90;;;;;;5017713;28;20271;-77
2022/04/11 01:55:31;;;;;;;0.50;0.50;;;3.70;99.90;;;;;;4996601;28;20231;-78
2022/04/11 01:57:56;;;;;;;0.40;0.40;;;3.80;99.90;;;;;;5012853;28;20453;-78
2022/04/11 02:00:22;;;;;;;0.40;0.40;;;3.60;99.90;;;;;;5014068;28;20255;-78
2022/04/11 02:02:47;;;;;;;0.50;0.50;;;3.60;99.90;;;;;;5013905;28;20252;-78
2022/04/11 02:05:14;;;;;;;0.40;0.40;;;3.70;99.90;;;;;;5019348;28;20212;-78
2022/04/11 02:07:39;;;;;;;0.47;0.47;;;3.80;99.90;;;;;;5008014;28;20443;-78
2022/04/11 02:10:05;;;;;;;0.50;0.50;;;3.70;99.90;;;;;;4994157;28;20253;-78
2022/04/11 02:12:31;;;;;;;0.40;0.40;;;3.70;99.90;;;;;;5000612;28;20186;-78
2022/04/11 02:14:56;;;;;;;0.40;0.40;;;3.70;99.90;;;;;;5016505;28;20451;-78
2022/04/11 02:17:22;;;;;;;0.50;0.50;;;3.50;99.90;;;;;;5014081;28;20195;-78
2022/04/11 02:19:47;;;;;;;0.33;0.33;;;3.60;99.90;;;;;;5015576;28;20636;-78
2022/04/11 02:22:13;;;;;;;0.40;0.40;;;3.60;99.90;;;;;;5006507;28;20235;-77
2022/04/11 02:24:38;;;;;;;0.50;0.50;;;3.60;99.90;;;;;;5017723;28;20227;-78
2022/04/11 02:27:04;;;;;;;0.47;0.47;;;3.60;99.90;;;;;;5015327;28;20842;-78
2022/04/11 02:29:29;;;;;;;0.40;0.40;;;3.50;99.90;;;;;;5033209;28;20168;-78
2022/04/11 02:31:55;;;;;;;0.40;0.40;;;3.60;99.90;;;;;;5013764;28;20258;-78
2022/04/11 02:34:20;;;;;;;0.40;0.40;;;3.50;99.90;;;;;;5025338;28;20191;-78
2022/04/11 02:36:46;;;;;;;0.40;0.40;;;3.50;99.90;;;;;;5011913;28;20196;-78
2022/04/11 02:39:11;;;;;;;0.40;0.40;;;3.50;99.90;;;;;;5009294;28;20180;-78
2022/04/11 02:41:37;;;;;;;0.30;0.30;;;3.50;99.90;;;;;;5020450;28;20273;-78
2022/04/11 02:44:02;;;;;;;0.50;0.50;;;3.40;99.90;;;;;;5027232;28;20192;-78
2022/04/11 02:46:28;;;;;;;0.40;0.40;;;3.50;99.90;;;;;;5018893;28;20902;-78
2022/04/11 02:48:53;;;;;;;0.50;0.50;;;3.40;99.90;;;;;;5031936;28;20183;-78
2022/04/11 02:51:19;;;;;;;0.43;0.43;;;3.30;99.90;;;;;;5032095;28;20187;-78
2022/04/11 02:53:44;;;;;;;0.40;0.40;;;3.40;99.90;;;;;;5002278;28;20259;-78
2022/04/11 02:56:10;;;;;;;0.50;0.50;;;3.50;99.90;;;;;;5013035;28;20282;-79
2022/04/11 02:58:35;;;;;;;0.50;0.50;;;3.40;99.90;;;;;;5032443;28;20179;-78
2022/04/11 03:01:01;;;;;;;0.60;0.60;;;3.50;99.90;;;;;;5022141;28;20205;-78
2022/04/11 03:03:26;;;;;;;0.50;0.50;;;3.50;99.90;;;;;;5011910;28;20535;-78
2022/04/11 03:05:52;;;;;;;0.57;0.57;;;3.40;99.90;;;;;;5014966;28;20654;-78
2022/04/11 03:08:17;;;;;;;0.40;0.40;;;3.40;99.90;;;;;;5025507;28;20266;-78
2022/04/11 03:10:43;;;;;;;0.40;0.40;;;3.40;99.90;;;;;;5011457;28;20205;-78
2022/04/11 03:13:08;;;;;;;0.50;0.50;;;3.30;99.90;;;;;;4991257;28;20867;-78
2022/04/11 03:15:34;;;;;;;0.70;0.70;;;3.40;99.90;;;;;;5012411;28;20283;-78
2022/04/11 03:17:59;;;;;;;0.50;0.50;;;3.40;99.90;;;;;;5011420;28;20570;-78
2022/04/11 03:20:25;;;;;;;0.63;0.63;;;3.40;99.90;;;;;;5018211;28;20192;-78
2022/04/11 03:22:50;;;;;;;0.50;0.50;;;3.40;99.90;;;;;;5019832;28;20216;-78
2022/04/11 03:25:16;;;;;;;0.40;0.40;;;3.40;99.90;;;;;;4991885;28;20682;-78
2022/04/11 03:27:42;;;;;;;0.50;0.50;;;3.20;99.90;;;;;;5011926;28;20180;-78
2022/04/11 03:30:08;;;;;;;0.50;0.50;;;3.30;99.90;;;;;;4987077;28;20216;-78
2022/04/11 03:32:34;;;;;;;0.40;0.40;;;3.30;99.90;;;;;;5005913;28;20274;-78
2022/04/11 03:34:59;;;;;;;0.43;0.43;;;3.30;99.90;;;;;;5010786;28;20443;-78
2022/04/11 03:37:26;;;;;;;0.40;0.40;;;3.30;99.90;;;;;;5002755;28;20192;-78
2022/04/11 03:39:51;;;;;;;0.80;0.80;;;3.20;99.90;;;;;;5012574;28;20184;-78
2022/04/11 03:42:17;;;;;;;0.60;0.60;;;3.20;99.90;;;;;;5008616;28;20855;-78
2022/04/11 03:44:42;;;;;;;0.47;0.47;;;3.10;99.90;;;;;;4981913;28;20183;-78
2022/04/11 03:47:08;;;;;;;0.60;0.60;;;3.10;99.90;;;;;;5000049;28;20266;-78
2022/04/11 03:49:34;;;;;;;0.63;0.63;;;3.20;99.90;;;;;;5001282;28;20750;-78
2022/04/11 03:51:59;;;;;;;0.50;0.50;;;3.20;99.90;;;;;;5001009;28;20184;-78
2022/04/11 03:54:25;;;;;;;0.70;0.70;;;3.20;99.90;;;;;;5007245;28;20230;-78
2022/04/11 03:56:50;;;;;;;0.50;0.50;;;3.20;99.90;;;;;;5011473;28;20191;-78
2022/04/11 03:59:16;;;;;;;0.80;0.80;;;3.20;99.90;;;;;;5013491;28;20982;-78
2022/04/11 04:01:41;;;;;;;0.80;0.80;;;3.10;99.90;;;;;;5007719;28;20230;-78
2022/04/11 04:04:07;;;;;;;0.70;0.70;;;3.10;99.90;;;;;;5006324;28;20632;-78
2022/04/11 04:06:32;;;;;;;1.00;1.00;;;3.10;99.90;;;;;;5021818;28;20192;-78
2022/04/11 04:08:58;;;;;;;0.77;0.77;;;3.00;99.90;;;;;;5008472;28;20184;-78
2022/04/11 04:11:23;;;;;;;0.70;0.70;;;3.10;99.90;;;;;;4986513;28;20192;-78
2022/04/11 04:13:49;;;;;;;0.60;0.60;;;3.20;99.90;;;;;;5010713;28;20231;-78
2022/04/11 04:16:14;;;;;;;0.60;0.60;;;3.20;99.90;;;;;;5005509;28;20198;-78
2022/04/11 04:18:39;;;;;;;0.57;0.57;;;3.30;99.90;;;;;;5009735;28;20191;-78
2022/04/11 04:21:05;;;;;;;0.57;0.57;;;3.30;99.90;;;;;;5012254;28;20703;-78
2022/04/11 04:23:31;;;;;;;0.50;0.50;;;3.40;99.90;;;;;;5005628;28;20268;-78
2022/04/11 04:25:57;;;;;;;0.70;0.70;;;3.30;99.90;;;;;;5005363;28;20246;-78
2022/04/11 04:28:22;;;;;;;0.53;0.53;;;3.20;99.90;;;;;;5008217;28;20190;-78
2022/04/11 04:30:48;;;;;;;0.50;0.50;;;3.30;99.90;;;;;;5003342;28;20553;-78
2022/04/11 04:33:13;;;;;;;0.43;0.43;;;3.30;99.90;;;;;;5009835;28;20226;-78
2022/04/11 04:35:39;;;;;;;0.40;0.40;;;3.40;99.90;;;;;;5020465;28;20188;-78
2022/04/11 04:38:05;;;;;;;0.50;0.50;;;3.30;99.90;;;;;;4997828;28;20196;-78
2022/04/11 04:40:30;;;;;;;0.50;0.50;;;3.40;99.90;;;;;;5000756;28;20451;-78
2022/04/11 04:42:56;;;;;;;0.50;0.50;;;3.50;99.90;;;;;;5003544;28;20244;-78
2022/04/11 04:45:23;;;;;;;0.67;0.67;;;3.60;99.90;;;;;;5004531;28;20190;-78
2022/04/11 04:47:49;;;;;;;0.47;0.47;;;3.60;99.90;;;;;;4992264;28;20230;-77
2022/04/11 04:50:14;;;;;;;0.50;0.50;;;3.60;99.90;;;;;;4989901;28;20879;-78
2022/04/11 04:52:40;;;;;;;0.60;0.60;;;3.60;99.90;;;;;;5001388;28;20747;-78
2022/04/11 04:55:05;;;;;;;0.50;0.50;;;3.60;99.90;;;;;;5004653;28;20228;-78
2022/04/11 04:57:31;;;;;;;0.50;0.50;;;3.60;99.90;;;;;;5004278;28;20188;-77
2022/04/11 04:59:57;;;;;;;0.70;0.70;;;3.60;99.90;;;;;;5004115;28;20212;-78
2022/04/11 05:02:22;;;;;;;0.80;0.80;;;3.50;99.90;;;;;;5001967;28;20915;-78
2022/04/11 05:04:48;;;;;;;0.63;0.63;;;3.40;99.90;;;;;;5007182;28;20196;-79
2022/04/11 05:07:13;;;;;;;0.60;0.60;;;3.20;99.90;;;;;;5007072;28;20255;-78
2022/04/11 05:09:39;;;;;;;0.40;0.40;;;3.10;99.90;;;;;;5008327;28;20180;-78
2022/04/11 05:12:05;;;;;;;0.60;0.60;;;3.20;99.90;;;;;;5008959;28;20548;-79
2022/04/11 05:14:30;;;;;;;0.50;0.50;;;3.30;99.90;;;;;;5009101;28;20202;-79
2022/04/11 05:16:56;;;;;;;0.40;0.40;;;3.10;99.90;;;;;;5003159;28;20815;-77
2022/04/11 05:19:21;;;;;;;0.40;0.40;;;3.10;99.90;;;;;;5006672;28;20177;-78
2022/04/11 05:21:47;;;;;;;0.70;0.70;;;3.10;99.90;;;;;;5009740;28;20232;-79
2022/04/11 05:24:14;;;;;;;0.60;0.60;;;3.00;99.90;;;;;;5009641;28;20864;-78
2022/04/11 05:26:39;;;;;;;0.40;0.40;;;3.00;99.90;;;;;;5008095;28;20276;-78
2022/04/11 05:29:05;;;;;;;0.40;0.40;;;3.00;99.90;;;;;;5008077;28;20518;-79
2022/04/11 05:31:31;;;;;;;0.30;0.30;;;3.00;99.90;;;;;;5006037;28;20191;-78
2022/04/11 05:33:56;;;;;;;0.40;0.40;;;3.10;99.90;;;;;;5010189;28;20198;-78
2022/04/11 05:36:21;;;;;;;0.30;0.30;;;3.30;99.90;;;;;;5015494;28;20660;-79
2022/04/11 05:38:47;;;;;;;0.50;0.50;;;3.50;99.90;;;;;;5008709;28;20192;-79
2022/04/11 05:41:14;;;;;;;0.40;0.40;;;3.50;99.90;;;;;;5023114;28;20303;-79
2022/04/11 05:43:40;;;;;;;0.50;0.50;;;3.60;99.90;;;;;;5006542;28;20180;-78
2022/04/11 05:46:06;;;;;;;0.30;0.30;;;3.60;99.90;;;;;;5008705;28;20447;-79
2022/04/11 05:48:32;;;;;;;0.40;0.40;;;3.60;99.90;;;;;;5013671;28;20187;-79
2022/04/11 05:50:59;;;;;;;0.40;0.40;;;3.70;99.90;;;;;;5014462;28;20184;-78
2022/04/11 05:53:25;;;;;;;0.40;0.40;;;3.80;99.90;;;;;;5015280;28;20801;-79
2022/04/11 05:55:51;;;;;;;0.60;0.60;;;3.80;99.90;;;;;;5017586;28;20487;-79
2022/04/11 05:58:16;;;;;;;0.53;0.53;;;3.90;99.90;;;;;;5004731;28;20450;-79
2022/04/11 06:00:41;;;;;;;0.53;0.53;;;3.90;99.90;;;;;;5006086;28;20190;-78
2022/04/11 06:03:08;;;;;;;0.40;0.40;;;3.90;99.90;;;;;;5007876;28;20680;-79
2022/04/11 06:05:36;;;;;;;0.50;0.50;;;3.90;99.90;;;;;;5000171;28;20270;-78
2022/04/11 06:08:02;;;;;;;0.40;0.40;;;4.00;99.90;;;;;;5028753;28;20422;-78
2022/04/11 06:10:27;;;;;;;0.40;0.40;;;4.20;99.90;;;;;;5011634;28;20434;-78
2022/04/11 06:12:54;;;;;;;0.60;0.60;;;4.30;99.90;;;;;;5017417;28;20915;-78
2022/04/11 06:15:19;;;;;;;0.30;0.30;;;4.40;99.90;;;;;;5007272;28;20192;-78
2022/04/11 06:17:45;;;;;;;0.33;0.33;;;4.50;99.90;;;;;;5008680;28;20420;-78
2022/04/11 06:20:13;;;;;;;0.40;0.40;;;4.50;99.90;;;;;;5006976;28;20195;-79
2022/04/11 06:22:42;;;;;;;0.50;0.50;;;4.60;99.90;;;;;;5007401;28;20845;-79
2022/04/11 06:25:08;;;;;;;0.40;0.40;;;4.70;99.90;;;;;;5014181;28;20861;-79
2022/04/11 06:27:36;;;;;;;0.37;0.37;;;4.90;99.90;;;;;;5012120;28;20561;-79
2022/04/11 06:30:03;;;;;;;0.40;0.40;;;4.80;99.90;;;;;;5008157;28;20499;-79
2022/04/11 06:32:31;;;;;;;0.50;0.50;;;4.80;99.90;;;;;;4993285;28;20435;-79
2022/04/11 06:34:57;;;;;;;0.40;0.40;;;4.70;99.90;;;;;;5003883;28;20442;-78
2022/04/11 06:37:26;;;;;;;0.50;0.50;;;4.90;99.90;;;;;;5010888;28;20451;-78
2022/04/11 06:39:52;;;;;;;0.40;0.40;;;5.00;99.90;;;;;;5008904;28;21157;-78
2022/04/11 06:42:18;;;;;;;0.30;0.30;;;4.90;99.90;;;;;;5010233;28;20493;-78
2022/04/11 06:44:44;;;;;;;0.30;0.30;;;5.00;99.90;;;;;;5008359;28;20465;-78
2022/04/11 06:47:10;;;;;;;0.60;0.60;;;5.00;99.90;;;;;;5012001;28;21129;-79
2022/04/11 06:49:36;;;;;;;0.30;0.30;;;5.10;99.90;;;;;;5009689;28;20184;-78
2022/04/11 06:52:02;;;;;;;0.40;0.40;;;5.10;99.90;;;;;;5011753;28;20198;-79
2022/04/11 06:54:27;;;;;;;0.50;0.50;;;5.20;99.90;;;;;;5008266;28;20538;-78
2022/04/11 06:56:53;;;;;;;0.30;0.30;;;5.40;99.90;;;;;;5010436;28;20554;-79
2022/04/11 06:59:19;;;;;;;0.70;0.70;;;5.40;99.90;;;;;;5009057;28;20247;-78
2022/04/11 07:01:44;;;;;;;0.30;0.30;;;5.40;99.90;;;;;;5005097;28;20228;-78
2022/04/11 07:04:10;;;;;;;0.83;0.83;;;5.50;99.90;;;;;;5006461;28;20185;-78
2022/04/11 07:06:35;;;;;;;0.30;0.30;;;5.50;99.90;;;;;;5010246;28;20188;-78
2022/04/11 07:09:01;;;;;;;0.23;0.23;;;5.50;99.90;;;;;;4992591;28;20199;-78
2022/04/11 07:11:27;;;;;;;0.37;0.37;;;5.50;99.90;;;;;;4996019;28;20248;-79
2022/04/11 07:13:52;;;;;;;0.40;0.40;;;5.60;99.90;;;;;;5002688;28;20286;-78
2022/04/11 07:16:18;;;;;;;0.30;0.30;;;5.70;99.90;;;;;;5010354;28;20195;-79
2022/04/11 07:18:43;;;;;;;0.23;0.23;;;5.60;99.90;;;;;;5001364;28;20255;-78
2022/04/11 07:21:09;;;;;;;0.30;0.30;;;5.60;99.90;;;;;;5007118;28;20192;-78
2022/04/11 07:23:34;;;;;;;0.30;0.30;;;5.70;99.90;;;;;;5006695;28;20220;-79
2022/04/11 07:26:00;;;;;;;0.30;0.30;;;5.70;99.90;;;;;;5008024;28;20615;-78
2022/04/11 07:28:25;;;;;;;0.30;0.30;;;5.80;99.90;;;;;;4988116;28;20799;-78
2022/04/11 07:30:51;;;;;;;0.30;0.30;;;5.90;99.90;;;;;;5010575;28;20271;-78
2022/04/11 07:33:17;;;;;;;0.30;0.30;;;6.10;99.90;;;;;;5009655;28;20215;-78
2022/04/11 07:35:43;;;;;;;0.30;0.30;;;6.10;99.90;;;;;;4993580;28;20250;-78
2022/04/11 07:38:08;;;;;;;0.30;0.30;;;6.10;99.90;;;;;;4987614;28;20450;-78
2022/04/11 07:40:34;;;;;;;0.20;0.20;;;6.20;99.90;;;;;;5011080;28;20265;-78
2022/04/11 07:42:59;;;;;;;0.20;0.20;;;6.50;99.90;;;;;;5007587;28;20255;-78
2022/04/11 07:45:25;;;;;;;0.30;0.30;;;6.70;99.90;;;;;;5006888;28;20195;-78
2022/04/11 07:47:50;;;;;;;0.20;0.20;;;6.80;99.90;;;;;;5008728;28;20553;-78
2022/04/11 07:50:16;;;;;;;0.30;0.30;;;7.10;99.90;;;;;;5009116;28;20188;-79
2022/04/11 07:52:43;;;;;;;0.30;0.30;;;7.20;99.90;;;;;;4993359;28;20189;-79
2022/04/11 07:55:11;;;;;;;0.50;0.50;;;7.20;99.90;;;;;;5009187;28;20220;-79
2022/04/11 07:57:37;;;;;;;0.30;0.30;;;7.70;99.90;;;;;;5008236;28;20452;-79
2022/04/11 08:00:06;;;;;;;0.20;0.20;;;7.80;99.90;;;;;;5006736;28;20497;-79
2022/04/11 08:02:32;;;;;;;0.20;0.20;;;7.80;99.90;;;;;;4985847;28;20852;-79
2022/04/11 08:05:05;;;;;;;0.27;0.27;;;7.30;99.90;;;;;;4988398;28;20431;-79
2022/04/11 08:07:34;;;;;;;0.27;0.27;;;6.90;99.90;;;;;;5008600;28;20191;-79
2022/04/11 08:10:04;;;;;;;0.20;0.20;;;6.70;99.90;;;;;;4992531;28;20447;-79
2022/04/11 08:12:30;;;;;;;0.20;0.20;;;6.50;99.90;;;;;;5005269;28;20946;-79
2022/04/11 08:14:56;;;;;;;0.30;0.30;;;6.60;99.90;;;;;;5006808;28;20454;-78
2022/04/11 08:17:21;;;;;;;0.30;0.30;;;6.70;99.90;;;;;;4990449;28;20184;-78
2022/04/11 08:19:47;;;;;;;0.30;0.30;;;6.90;99.90;;;;;;5006668;28;20505;-77
2022/04/11 08:22:13;;;;;;;0.30;0.30;;;6.90;99.90;;;;;;4984783;28;20226;-77
2022/04/11 08:24:38;;;;;;;0.20;0.20;;;7.40;99.90;;;;;;5010641;28;20196;-77
2022/04/11 08:27:04;;;;;;;0.30;0.30;;;7.80;99.90;;;;;;5008263;28;20188;-78
2022/04/11 08:29:29;;;;;;;0.40;0.40;;;8.00;99.90;;;;;;5009146;28;20187;-78
2022/04/11 08:31:55;;;;;;;0.30;0.30;;;8.10;99.90;;;;;;5007062;28;20187;-78
2022/04/11 08:34:21;;;;;;;0.30;0.30;;;7.90;99.90;;;;;;5010401;28;20183;-77
2022/04/11 08:36:46;;;;;;;0.40;0.40;;;7.90;99.90;;;;;;4990205;28;20447;-77
2022/04/11 08:39:12;;;;;;;0.30;0.30;;;8.50;99.90;;;;;;4991708;28;20192;-76
2022/04/11 08:41:38;;;;;;;0.20;0.20;;;9.20;99.90;;;;;;5008846;28;20274;-76
2022/04/11 08:44:05;;;;;;;0.20;0.20;;;8.80;99.90;;;;;;5009655;28;20274;-75
2022/04/11 08:46:32;;;;;;;0.20;0.20;;;9.10;99.90;;;;;;5009947;28;20879;-77
2022/04/11 08:48:59;;;;;;;0.20;0.20;;;8.60;99.90;;;;;;5008510;28;20439;-77
2022/04/11 08:51:25;;;;;;;0.27;0.27;;;8.50;99.90;;;;;;4984590;28;20442;-77
2022/04/11 08:53:51;;;;;;;0.30;0.30;;;7.80;99.90;;;;;;5010132;28;20434;-76
2022/04/11 08:56:17;;;;;;;0.30;0.30;;;7.40;99.90;;;;;;4990208;28;20479;-77
2022/04/11 08:58:43;;;;;;;0.20;0.20;;;8.40;99.90;;;;;;4998630;28;20526;-76
2022/04/11 09:01:08;;;;;;;0.20;0.20;;;9.10;99.90;;;;;;5002687;28;20197;-73
2022/04/11 09:03:34;;;;;;;0.30;0.30;;;9.10;99.90;;;;;;5006555;28;20196;-77
2022/04/11 09:06:08;;;;;;;0.20;0.20;;;9.30;99.90;;;;;;4988371;28;20465;-76
2022/04/11 09:08:48;;;;;;;0.20;0.20;;;9.30;99.90;;;;;;4987099;28;20196;-76
2022/04/11 09:11:25;;;;;;;0.20;0.20;;;9.20;99.90;;;;;;5001037;28;20457;-76
2022/04/11 09:13:52;;;;;;;0.20;0.20;;;10.10;99.90;;;;;;5004627;28;20478;-76
2022/04/11 09:16:18;;;;;;;0.20;0.20;;;9.10;99.90;;;;;;5007722;28;20794;-76
2022/04/11 09:18:48;;;;;;;0.20;0.20;;;9.00;99.90;;;;;;5008940;28;20993;-76
2022/04/11 09:21:14;;;;;;;0.20;0.20;;;8.40;99.90;;;;;;5007928;28;20188;-75
2022/04/11 09:23:40;;;;;;;0.30;0.30;;;8.80;99.90;;;;;;5008828;28;20454;-75
2022/04/11 09:26:22;;;;;;;0.20;0.20;;;9.70;99.90;;;;;;5006830;28;20431;-76
2022/04/11 09:29:02;;;;;;;0.20;0.20;;;9.70;99.90;;;;;;5004031;28;20644;-75
2022/04/11 09:31:28;;;;;;;0.20;0.20;;;10.20;99.90;;;;;;5006604;28;20443;-76
2022/04/11 09:33:56;;;;;;;0.20;0.20;;;10.40;99.90;;;;;;5007468;28;20461;-74
2022/04/11 09:36:21;;;;;;;0.20;0.20;;;11.20;99.90;;;;;;5007189;28;20276;-76
2022/04/11 09:39:00;;;;;;;0.20;0.20;;;11.50;99.90;;;;;;5004341;28;20443;-76
2022/04/11 09:41:27;;;;;;;0.20;0.20;;;12.00;99.90;;;;;;5003359;28;20243;-76
2022/04/11 09:43:53;;;;;;;0.20;0.20;;;11.50;99.90;;;;;;5006341;28;21194;-74
2022/04/11 09:46:18;;;;;;;0.20;0.20;;;11.00;99.90;;;;;;5005828;28;20498;-76
2022/04/11 09:48:45;;;;;;;0.10;0.10;;;12.10;99.90;;;;;;5009527;28;20198;-76
2022/04/11 09:51:13;;;;;;;0.20;0.20;;;12.30;99.90;;;;;;5008890;28;20177;-76
2022/04/11 09:53:39;;;;;;;0.20;0.20;;;11.30;99.90;;;;;;5010007;28;20518;-76
2022/04/11 09:56:09;;;;;;;0.20;0.20;;;10.40;99.90;;;;;;4989405;28;20579;-76
2022/04/11 09:58:37;;;;;;;0.20;0.20;;;10.30;99.90;;;;;;5011326;28;20450;-76
2022/04/11 10:01:04;;;;;;;0.20;0.20;;;11.00;99.90;;;;;;4992928;28;20434;-76
2022/04/11 10:03:30;;;;;;;0.20;0.20;;;10.50;99.90;;;;;;5008758;28;20900;-76
2022/04/11 10:05:57;;;;;;;0.20;0.20;;;9.20;99.90;;;;;;5010240;28;20967;-76
2022/04/11 10:08:25;;;;;;;0.20;0.20;;;8.80;99.90;;;;;;5013094;28;20536;-75
2022/04/11 10:10:51;;;;;;;0.20;0.20;;;8.90;99.90;;;;;;4994324;28;20447;-76
2022/04/11 10:13:17;;;;;;;0.20;0.20;;;9.10;99.90;;;;;;5008935;28;20483;-76
2022/04/11 10:15:46;;;;;;;0.20;0.20;;;9.00;99.90;;;;;;4994067;28;20482;-76
2022/04/11 10:18:14;;;;;;;0.20;0.20;;;10.00;99.90;;;;;;5010250;28;20307;-76
2022/04/11 10:20:48;;;;;;;0.20;0.20;;;10.30;99.90;;;;;;4990091;28;20453;-76
2022/04/11 10:23:22;;;;;;;0.20;0.20;;;10.90;99.90;;;;;;4994200;28;20870;-76
2022/04/11 10:25:50;;;;;;;0.20;0.20;;;11.20;99.90;;;;;;5005304;28;20446;-76
2022/04/11 10:28:20;;;;;;;0.20;0.20;;;11.30;99.90;;;;;;4989958;28;20463;-76
2022/04/11 10:31:11;;;;;;;0.10;0.10;;;12.50;99.90;;;;;;5011302;28;20439;-76
2022/04/11 10:33:44;;;;;;;0.20;0.20;;;12.30;99.90;;;;;;5007532;28;20448;-75
2022/04/11 10:36:30;;;;;;;0.13;0.13;;;13.00;99.90;;;;;;5010346;28;20482;-75
2022/04/11 10:39:14;;;;;;;0.10;0.10;;;13.60;99.90;;;;;;5007132;28;20976;-78
2022/04/11 10:41:58;;;;;;;0.10;0.10;;;14.10;99.90;;;;;;5005905;28;20459;-78
2022/04/11 10:44:34;;;;;;;0.10;0.10;;;14.00;99.90;;;;;;5013481;28;20438;-79
2022/04/11 10:47:11;;;;;;;0.10;0.10;;;12.80;99.90;;;;;;5010193;28;20446;-78
2022/04/11 10:49:49;;;;;;;0.10;0.10;;;11.60;99.90;;;;;;5008582;28;20450;-78
2022/04/11 10:52:27;;;;;;;0.10;0.10;;;11.10;99.90;;;;;;5010579;28;20458;-78
2022/04/11 10:54:57;;;;;;;0.10;0.10;;;10.70;99.90;;;;;;5008692;28;20471;-75
2022/04/11 10:57:33;;;;;;;0.10;0.10;;;9.90;99.90;;;;;;5003530;28;20535;-74
2022/04/11 11:00:19;;;;;;;0.20;0.20;;;10.10;99.90;;;;;;4991984;28;20932;-75
2022/04/11 11:02:57;;;;;;;0.13;0.13;;;10.80;99.90;;;;;;4989668;28;20491;-78
2022/04/11 11:05:26;;;;;;;0.10;0.10;;;12.30;99.90;;;;;;5010740;28;20444;-78
2022/04/11 11:08:09;;;;;;;0.20;0.20;;;13.50;99.90;;;;;;5008485;28;20447;-78
2022/04/11 11:11:02;;;;;;;0.10;0.10;;;14.10;99.90;;;;;;5006294;28;21396;-78
2022/04/11 11:13:34;;;;;;;0.10;0.10;;;13.80;99.90;;;;;;5012039;28;20431;-78
2022/04/11 11:16:11;;;;;;;0.10;0.10;;;13.90;99.90;;;;;;5009607;28;20455;-78
2022/04/11 11:18:52;;;;;;;0.10;0.10;;;13.20;99.90;;;;;;5009694;28;20443;-75
2022/04/11 11:21:44;;;;;;;0.00;0.00;;;13.60;99.90;;;;;;4992906;28;20867;-78
2022/04/11 11:24:10;;;;;;;0.00;0.00;;;13.80;99.90;;;;;;5010428;28;20435;-78
2022/04/11 11:26:54;;;;;;;0.00;0.00;;;14.80;99.90;;;;;;5009731;28;20546;-78
2022/04/11 11:29:23;;;;;;;0.00;0.00;;;16.20;99.90;;;;;;5008998;28;20470;-78
2022/04/11 11:31:54;;;;;;;0.00;0.00;;;16.50;99.90;;;;;;4996323;28;20458;-78
2022/04/11 11:34:22;;;;;;;0.00;0.00;;;15.50;99.90;;;;;;5010237;28;21019;-78
2022/04/11 11:36:47;;;;;;;0.00;0.00;;;12.90;99.90;;;;;;5007214;28;20828;-78
2022/04/11 11:39:16;;;;;;;0.00;0.00;;;13.60;99.90;;;;;;5008810;28;20451;-78
2022/04/11 11:41:43;;;;;;;0.00;0.00;;;12.50;99.90;;;;;;5010644;28;20246;-79
2022/04/11 11:44:09;;;;;;;0.00;0.00;;;12.90;99.90;;;;;;4995935;28;20473;-78
2022/04/11 11:46:53;;;;;;;0.00;0.00;;;13.50;99.90;;;;;;5006720;28;20442;-78
2022/04/11 11:49:18;;;;;;;0.00;0.00;;;14.20;99.90;;;;;;5010424;28;20512;-78
2022/04/11 11:51:44;;;;;;;0.00;0.00;;;13.80;99.90;;;;;;4992455;28;20446;-78
2022/04/11 11:54:10;;;;;;;0.00;0.00;;;14.40;99.90;;;;;;4993604;28;20275;-78
2022/04/11 11:56:46;;;;;;;0.00;0.00;;;13.90;99.90;;;;;;5004813;28;20653;-78
2022/04/11 11:59:15;;;;;;;0.00;0.00;;;15.20;99.90;;;;;;5003720;28;20203;-78
2022/04/11 12:01:40;;;;;;;0.00;0.00;;;14.80;99.80;;;;;;4985714;28;20506;-79
2022/04/11 12:04:19;;;;;;;0.00;0.00;;;15.90;99.90;;;;;;5001769;28;20451;-79
2022/04/11 12:06:54;;;;;;;0.00;0.00;;;17.50;99.90;;;;;;4984226;28;20193;-79
2022/04/11 12:09:20;;;;;;;0.00;0.00;;;17.70;99.40;;;;;;4985109;28;20447;-79
2022/04/11 12:11:46;;;;;;;0.00;0.00;;;18.40;99.80;;;;;;5008137;28;20463;-79
2022/04/11 12:14:11;;;;;;;0.00;0.00;;;17.70;95.80;;;;;;5004776;28;21197;-79
2022/04/11 12:16:53;;;;;;;0.00;0.00;;;18.30;96.40;;;;;;5009532;28;20643;-78
2022/04/11 12:19:19;;;;;;;0.00;0.00;;;17.90;96.20;;;;;;5009763;28;20192;-78
2022/04/11 12:21:45;;;;;;;0.00;0.00;;;17.60;95.00;;;;;;5009282;28;20906;-78
2022/04/11 12:24:10;;;;;;;0.00;0.00;;;17.10;94.40;;;;;;5010401;28;20184;-78
2022/04/11 12:26:37;;;;;;;0.00;0.00;;;17.80;91.90;;;;;;5010148;28;20224;-79
2022/04/11 12:29:14;;;;;;;0.00;0.00;;;17.20;97.90;;;;;;5010116;28;20196;-78
2022/04/11 12:32:01;;;;;;;0.00;0.00;;;16.90;95.00;;;;;;4989646;28;20451;-78
2022/04/11 12:34:34;;;;;;;0.00;0.00;;;17.00;99.90;;;;;;4992318;28;20521;-79
2022/04/11 12:37:02;;;;;;;0.00;0.00;;;16.80;99.90;;;;;;5008070;28;20569;-78
2022/04/11 12:39:29;;;;;;;0.00;0.00;;;15.60;99.90;;;;;;4987008;28;20442;-78
2022/04/11 12:41:55;;;;;;;0.00;0.00;;;14.70;98.60;;;;;;5006072;28;20485;-78
2022/04/11 12:44:34;;;;;;;0.00;0.00;;;16.10;97.10;;;;;;5002610;28;20461;-78
2022/04/11 12:47:00;;;;;;;0.00;0.00;;;16.80;96.50;;;;;;5003006;28;20452;-78
2022/04/11 12:49:42;;;;;;;0.00;0.00;;;16.30;94.00;;;;;;4997747;28;20452;-77
2022/04/11 12:52:07;;;;;;;0.00;0.00;;;16.80;95.40;;;;;;4998109;28;20263;-78
2022/04/11 12:54:50;;;;;;;0.00;0.00;;;16.60;94.70;;;;;;4991637;28;21028;-78
2022/04/11 12:57:24;;;;;;;0.00;0.00;;;18.10;94.10;;;;;;4977249;28;20200;-78